createdAt,value
2023-03-31T00:02:23.167Z,100102.91
2023-03-31T00:04:52.780Z,100102.63
2023-03-31T00:07:22.315Z,100099.22
2023-03-31T00:09:48.797Z,100097.19
2023-03-31T00:12:16.640Z,100092.44
2023-03-31T00:14:44.095Z,100090.84
2023-03-31T00:17:11.522Z,100089.72
2023-03-31T00:19:40.081Z,100090.56
2023-03-31T00:22:06.599Z,100077.47
2023-03-31T00:24:33.387Z,100082.53
2023-03-31T00:27:01.190Z,100078.59
2023-03-31T00:29:27.926Z,100076.44
2023-03-31T00:31:55.433Z,100073.09
2023-03-31T00:34:22.938Z,100073.63
2023-03-31T00:36:49.366Z,100074.66
2023-03-31T00:39:18.742Z,100073.31
2023-03-31T00:41:45.695Z,100069.47
2023-03-31T00:44:22.692Z,100072.66
2023-03-31T00:46:53.884Z,100064.56
2023-03-31T00:49:34.169Z,100059.06
2023-03-31T00:52:31.165Z,100062.06
2023-03-31T00:55:04.970Z,100063.00
2023-03-31T00:57:37.093Z,100062.69
2023-03-31T01:00:25.520Z,100050.63
2023-03-31T01:02:58.787Z,100049.75
2023-03-31T01:05:36.597Z,100047.16
2023-03-31T01:08:05.733Z,100038.56
2023-03-31T01:10:41.458Z,100033.09
2023-03-31T01:13:10.724Z,100030.91
2023-03-31T01:15:38.325Z,100031.91
2023-03-31T01:18:10.802Z,100025.59
2023-03-31T01:21:06.600Z,100026.22
2023-03-31T01:23:57.900Z,100013.91
2023-03-31T01:26:49.739Z,100019.34
2023-03-31T01:29:42.663Z,100013.41
2023-03-31T01:32:38.258Z,100016.25
2023-03-31T01:35:24.032Z,100017.16
2023-03-31T01:38:19.488Z,100004.97
2023-03-31T01:41:01.851Z,100006.09
2023-03-31T01:43:43.715Z,100003.16
2023-03-31T01:46:25.238Z,99997.81
2023-03-31T01:49:07.730Z,99988.34
2023-03-31T01:51:45.586Z,99987.94
2023-03-31T01:54:21.084Z,99984.72
2023-03-31T01:56:55.038Z,99987.94
2023-03-31T01:59:34.282Z,99980.91
2023-03-31T02:02:11.314Z,99970.84
2023-03-31T02:04:43.613Z,99973.34
2023-03-31T02:07:14.637Z,99972.50
2023-03-31T02:09:44.115Z,99968.22
2023-03-31T02:12:13.402Z,99967.00
2023-03-31T02:14:44.550Z,99967.22
2023-03-31T02:17:18.265Z,99965.25
2023-03-31T02:19:49.102Z,99960.28
2023-03-31T02:22:19.584Z,99960.81
2023-03-31T02:24:49.037Z,99964.44
2023-03-31T02:27:20.988Z,99959.47
2023-03-31T02:29:48.580Z,99961.13
2023-03-31T02:32:22.861Z,99951.91
2023-03-31T02:34:49.504Z,99948.69
2023-03-31T02:37:16.309Z,99949.22
2023-03-31T02:39:48.012Z,99947.03
2023-03-31T02:42:14.508Z,99946.22
2023-03-31T02:44:41.097Z,99945.69
2023-03-31T02:47:11.273Z,99943.94
2023-03-31T02:49:40.338Z,99943.19
2023-03-31T02:52:44.920Z,99937.19
2023-03-31T02:55:20.049Z,99927.13
2023-03-31T02:58:05.453Z,99926.63
2023-03-31T03:00:46.012Z,99923.91
2023-03-31T03:03:26.885Z,99916.66
2023-03-31T03:06:16.806Z,99919.34
2023-03-31T03:09:25.236Z,99913.53
2023-03-31T03:12:06.756Z,99917.16
2023-03-31T03:14:44.854Z,99916.75
2023-03-31T03:17:23.606Z,99913.53
2023-03-31T03:19:55.786Z,99909.72
2023-03-31T03:22:22.949Z,99907.63
2023-03-31T03:24:49.347Z,99906.47
2023-03-31T03:27:15.964Z,99903.97
2023-03-31T03:29:42.801Z,99894.25
2023-03-31T03:32:10.711Z,99890.59
2023-03-31T03:34:37.464Z,99888.22
2023-03-31T03:37:03.860Z,99879.22
2023-03-31T03:39:30.238Z,99881.91
2023-03-31T03:41:56.621Z,99892.28
2023-03-31T03:44:23.079Z,99878.47
2023-03-31T03:46:49.597Z,99867.91
2023-03-31T03:49:16.281Z,99872.56
2023-03-31T03:51:42.686Z,99867.28
2023-03-31T03:54:09.089Z,99869.88
2023-03-31T03:56:35.531Z,99867.56
2023-03-31T03:59:01.940Z,99871.00
2023-03-31T04:01:28.336Z,99869.34
2023-03-31T04:03:54.733Z,99873.41
2023-03-31T04:06:21.194Z,99860.66
2023-03-31T04:08:47.593Z,99863.31
2023-03-31T04:11:18.991Z,99868.34
2023-03-31T04:13:46.729Z,99858.97
2023-03-31T04:16:13.442Z,99854.63
2023-03-31T04:18:48.681Z,99857.63
2023-03-31T04:21:22.697Z,99850.28
2023-03-31T04:24:01.646Z,99850.56
2023-03-31T04:26:42.639Z,99840.63
2023-03-31T04:29:13.741Z,99840.34
2023-03-31T04:31:42.934Z,99839.38
2023-03-31T04:34:14.097Z,99835.97
2023-03-31T04:36:49.075Z,99834.59
2023-03-31T04:39:18.035Z,99833.06
2023-03-31T04:41:44.830Z,99836.06
2023-03-31T04:44:11.258Z,99835.75
2023-03-31T04:46:37.662Z,99834.94
2023-03-31T04:49:05.621Z,99825.00
2023-03-31T04:51:32.023Z,99825.59
2023-03-31T04:53:58.429Z,99820.00
2023-03-31T04:56:24.821Z,99815.25
2023-03-31T04:58:51.223Z,99810.03
2023-03-31T05:01:20.432Z,99803.81
2023-03-31T05:03:48.002Z,99796.38
2023-03-31T05:06:16.029Z,99790.69
2023-03-31T05:08:43.467Z,99787.25
2023-03-31T05:11:09.860Z,99789.44
2023-03-31T05:13:36.243Z,99782.69
2023-03-31T05:16:10.894Z,99780.31
2023-03-31T05:18:37.780Z,99791.59
2023-03-31T05:21:15.628Z,99780.00
2023-03-31T05:23:42.953Z,99783.50
2023-03-31T05:26:10.107Z,99765.59
2023-03-31T05:28:37.081Z,99759.38
2023-03-31T05:31:04.649Z,99755.34
2023-03-31T05:33:31.708Z,99750.16
2023-03-31T05:36:00.122Z,99747.03
2023-03-31T05:38:31.774Z,99754.06
2023-03-31T05:40:58.381Z,99747.72
2023-03-31T05:43:24.889Z,99750.00
2023-03-31T05:45:51.338Z,99749.16
2023-03-31T05:48:17.781Z,99739.13
2023-03-31T05:50:44.173Z,99739.50
2023-03-31T05:53:10.725Z,99741.16
2023-03-31T05:55:37.673Z,99734.81
2023-03-31T05:58:04.585Z,99727.97
2023-03-31T06:00:31.643Z,99729.84
2023-03-31T06:02:59.272Z,99732.63
2023-03-31T06:05:30.959Z,99722.44
2023-03-31T06:07:57.460Z,99723.19
2023-03-31T06:10:23.859Z,99719.16
2023-03-31T06:12:53.086Z,99710.13
2023-03-31T06:15:19.491Z,99710.53
2023-03-31T06:17:45.979Z,99705.06
2023-03-31T06:20:24.458Z,99707.97
2023-03-31T06:22:53.317Z,99703.66
2023-03-31T06:25:19.743Z,99695.47
2023-03-31T06:27:46.188Z,99685.25
2023-03-31T06:30:13.144Z,99691.09
2023-03-31T06:32:39.603Z,99688.13
2023-03-31T06:35:06.561Z,99684.09
2023-03-31T06:37:32.998Z,99684.88
2023-03-31T06:39:59.383Z,99679.22
2023-03-31T06:42:26.111Z,99682.13
2023-03-31T06:44:52.522Z,99679.34
2023-03-31T06:47:19.013Z,99676.59
2023-03-31T06:49:45.484Z,99672.47
2023-03-31T06:52:11.871Z,99672.81
2023-03-31T06:54:38.375Z,99673.16
2023-03-31T06:57:04.992Z,99676.47
2023-03-31T06:59:31.400Z,99667.88
2023-03-31T07:01:58.040Z,99666.84
2023-03-31T07:04:24.508Z,99666.69
2023-03-31T07:06:51.556Z,99655.44
2023-03-31T07:09:18.773Z,99661.06
2023-03-31T07:11:45.270Z,99651.59
2023-03-31T07:14:11.882Z,99652.25
2023-03-31T07:16:38.462Z,99648.97
2023-03-31T07:19:06.613Z,99635.41
2023-03-31T07:21:33.051Z,99632.69
2023-03-31T07:23:59.503Z,99634.13
2023-03-31T07:26:27.054Z,99640.06
2023-03-31T07:28:56.548Z,99645.94
2023-03-31T07:31:23.330Z,99653.25
2023-03-31T07:33:49.762Z,99646.47
2023-03-31T07:36:16.998Z,99637.41
2023-03-31T07:38:46.735Z,99632.56
2023-03-31T07:41:15.595Z,99635.38
2023-03-31T07:43:42.109Z,99636.25
2023-03-31T07:46:18.755Z,99634.69
2023-03-31T07:48:46.665Z,99623.19
2023-03-31T07:51:15.301Z,99623.13
2023-03-31T07:53:41.796Z,99619.69
2023-03-31T07:56:08.654Z,99620.56
2023-03-31T07:58:35.803Z,99618.25
2023-03-31T08:01:02.646Z,99617.00
2023-03-31T08:03:29.184Z,99613.69
2023-03-31T08:05:56.233Z,99610.09
2023-03-31T08:08:22.665Z,99602.28
2023-03-31T08:10:50.711Z,99594.72
2023-03-31T08:13:17.150Z,99596.34
2023-03-31T08:15:43.655Z,99591.22
2023-03-31T08:18:10.222Z,99591.06
2023-03-31T08:20:36.698Z,99591.69
2023-03-31T08:23:03.701Z,99597.44
2023-03-31T08:25:30.237Z,99583.25
2023-03-31T08:27:56.892Z,99578.94
2023-03-31T08:30:23.496Z,99568.97
2023-03-31T08:32:49.924Z,99575.41
2023-03-31T08:35:16.552Z,99570.81
2023-03-31T08:37:42.961Z,99569.50
2023-03-31T08:40:16.768Z,99556.47
2023-03-31T08:42:50.435Z,99550.47
2023-03-31T08:45:34.183Z,99549.38
2023-03-31T08:48:07.450Z,99545.94
2023-03-31T08:50:39.833Z,99545.44
2023-03-31T08:53:13.786Z,99545.47
2023-03-31T08:55:52.194Z,99535.59
2023-03-31T08:58:40.408Z,99533.69
2023-03-31T09:01:27.191Z,99532.22
2023-03-31T09:04:43.515Z,99526.97
2023-03-31T09:07:26.261Z,99516.78
2023-03-31T09:10:24.537Z,99519.97
2023-03-31T09:13:17.048Z,99513.50
2023-03-31T09:15:46.877Z,99514.91
2023-03-31T09:18:37.463Z,99517.13
2023-03-31T09:21:13.953Z,99514.44
2023-03-31T09:24:09.512Z,99510.31
2023-03-31T09:26:47.675Z,99509.63
2023-03-31T09:29:19.195Z,99496.91
2023-03-31T09:31:46.944Z,99489.16
2023-03-31T09:34:17.536Z,99486.69
2023-03-31T09:36:43.999Z,99485.06
2023-03-31T09:39:14.154Z,99481.50
2023-03-31T09:41:46.205Z,99483.63
2023-03-31T09:44:25.913Z,99470.09
2023-03-31T09:46:53.700Z,99464.81
2023-03-31T09:49:27.403Z,99465.19
2023-03-31T09:52:02.408Z,99456.84
2023-03-31T09:54:36.371Z,99454.38
2023-03-31T09:57:03.677Z,99448.75
2023-03-31T09:59:33.935Z,99452.56
2023-03-31T10:02:03.870Z,99450.72
2023-03-31T10:04:34.386Z,99447.13
2023-03-31T10:07:03.874Z,99444.53
2023-03-31T10:09:33.486Z,99446.38
2023-03-31T10:12:05.720Z,99446.06
2023-03-31T10:14:48.040Z,99442.09
2023-03-31T10:17:20.659Z,99429.47
2023-03-31T10:19:49.528Z,99433.69
2023-03-31T10:22:27.894Z,99431.09
2023-03-31T10:24:54.389Z,99428.34
2023-03-31T10:27:29.856Z,99421.22
2023-03-31T10:29:58.673Z,99422.72
2023-03-31T10:32:29.315Z,99415.13
2023-03-31T10:34:57.844Z,99430.56
2023-03-31T10:37:28.051Z,99424.25
2023-03-31T10:40:06.023Z,99420.16
2023-03-31T10:42:32.998Z,99414.09
2023-03-31T10:45:36.541Z,99409.50
2023-03-31T10:48:04.476Z,99401.75
2023-03-31T10:50:34.289Z,99407.25
2023-03-31T10:53:03.153Z,99400.81
2023-03-31T10:55:36.111Z,99394.38
2023-03-31T10:58:32.750Z,99396.03
2023-03-31T11:01:14.252Z,99391.16
2023-03-31T11:03:45.398Z,99380.66
2023-03-31T11:06:48.028Z,99380.47
2023-03-31T11:09:26.234Z,99379.31
2023-03-31T11:12:19.019Z,99371.72
2023-03-31T11:15:00.228Z,99359.25
2023-03-31T11:26:25.964Z,99334.94
2023-03-31T11:28:58.991Z,99339.16
2023-03-31T11:31:36.754Z,99331.91
2023-03-31T11:34:33.415Z,99319.47
2023-03-31T11:37:19.500Z,99318.84
2023-03-31T11:40:13.410Z,99321.41
2023-03-31T11:42:49.473Z,99326.63
2023-03-31T11:45:19.786Z,99316.19
2023-03-31T11:47:50.875Z,99314.97
2023-03-31T11:50:22.165Z,99316.72
2023-03-31T11:52:58.385Z,99315.03
2023-03-31T11:55:28.550Z,99304.41
2023-03-31T11:58:08.364Z,99304.28
2023-03-31T12:00:46.435Z,99299.47
2023-03-31T12:03:20.006Z,99292.13
2023-03-31T12:05:51.693Z,99288.31
2023-03-31T12:08:28.897Z,99284.53
2023-03-31T12:11:02.520Z,99272.47
2023-03-31T12:13:46.541Z,99271.69
2023-03-31T12:16:12.986Z,99269.81
2023-03-31T12:18:56.996Z,99266.28
2023-03-31T12:21:26.902Z,99260.19
2023-03-31T12:23:53.293Z,99254.88
2023-03-31T12:26:40.022Z,99248.06
2023-03-31T12:29:28.046Z,99239.28
2023-03-31T12:31:58.700Z,99250.75
2023-03-31T12:34:27.904Z,99244.75
2023-03-31T12:37:22.710Z,99238.66
2023-03-31T12:40:21.985Z,99234.75
2023-03-31T12:43:06.540Z,99237.78
2023-03-31T12:45:59.880Z,99244.56
2023-03-31T12:48:44.146Z,99245.22
2023-03-31T12:51:30.453Z,99245.00
2023-03-31T12:54:07.864Z,99247.41
2023-03-31T12:57:02.816Z,99241.56
2023-03-31T12:59:41.675Z,99242.06
2023-03-31T13:02:08.053Z,99244.88
2023-03-31T13:04:34.559Z,99235.03
2023-03-31T13:07:00.979Z,99229.41
2023-03-31T13:09:33.584Z,99239.06
2023-03-31T13:12:07.845Z,99244.06
2023-03-31T13:14:40.240Z,99238.44
2023-03-31T13:17:32.581Z,99234.06
2023-03-31T13:20:27.635Z,99241.56
2023-03-31T13:23:06.364Z,99238.41
2023-03-31T13:25:39.652Z,99231.94
2023-03-31T13:28:22.876Z,99226.13
2023-03-31T13:31:44.770Z,99221.53
2023-03-31T13:34:11.270Z,99226.00
2023-03-31T13:36:56.712Z,99226.03
2023-03-31T13:40:12.267Z,99228.31
2023-03-31T13:42:57.106Z,99218.88
2023-03-31T13:45:47.636Z,99215.41
2023-03-31T13:48:33.571Z,99222.75
2023-03-31T13:51:19.791Z,99223.53
2023-03-31T13:54:04.669Z,99217.63
2023-03-31T13:57:00.342Z,99224.44
2023-03-31T14:00:12.277Z,99218.34
2023-03-31T14:03:04.159Z,99222.47
2023-03-31T14:05:43.377Z,99229.41
2023-03-31T14:08:18.839Z,99221.13
2023-03-31T14:10:45.457Z,99222.81
2023-03-31T14:13:19.832Z,99215.88
2023-03-31T14:15:50.965Z,99219.47
2023-03-31T14:18:27.500Z,99225.09
2023-03-31T14:21:21.385Z,99219.16
2023-03-31T14:24:05.391Z,99217.69
2023-03-31T14:26:47.910Z,99226.09
2023-03-31T14:29:37.069Z,99216.22
2023-03-31T14:32:25.546Z,99214.22
2023-03-31T14:35:04.710Z,99215.22
2023-03-31T14:37:31.409Z,99215.06
2023-03-31T14:39:58.979Z,99210.63
2023-03-31T14:42:39.923Z,99219.69
2023-03-31T14:45:17.547Z,99208.09
2023-03-31T14:47:54.252Z,99203.69
2023-03-31T14:50:21.041Z,99204.00
2023-03-31T14:52:49.361Z,99198.38
2023-03-31T14:55:17.364Z,99198.09
2023-03-31T14:57:47.106Z,99192.97
2023-03-31T15:00:24.625Z,99192.97
2023-03-31T15:02:51.671Z,99188.88
2023-03-31T15:05:32.999Z,99191.97
2023-03-31T15:08:03.725Z,99191.78
2023-03-31T15:10:35.848Z,99191.13
2023-03-31T15:13:08.912Z,99195.59
2023-03-31T15:15:35.533Z,99195.41
2023-03-31T15:18:03.128Z,99203.53
2023-03-31T15:20:38.296Z,99197.41
2023-03-31T15:23:24.810Z,99185.69
2023-03-31T15:26:02.014Z,99196.91
2023-03-31T15:28:37.052Z,99195.78
2023-03-31T15:31:10.078Z,99196.59
2023-03-31T15:33:44.281Z,99180.44
2023-03-31T15:36:12.296Z,99177.47
2023-03-31T15:38:39.282Z,99181.25
2023-03-31T15:41:13.611Z,99175.81
2023-03-31T15:43:50.862Z,99182.56
2023-03-31T15:46:45.514Z,99179.44
2023-03-31T15:49:21.236Z,99180.94
2023-03-31T15:51:48.375Z,99178.13
2023-03-31T15:54:34.532Z,99174.81
2023-03-31T15:57:02.733Z,99172.50
2023-03-31T15:59:41.544Z,99173.81
2023-03-31T16:02:21.328Z,99182.84
2023-03-31T16:04:50.969Z,99172.13
2023-03-31T16:07:32.789Z,99177.75
2023-03-31T16:10:01.747Z,99167.53
2023-03-31T16:12:35.629Z,99163.41
2023-03-31T16:15:15.715Z,99169.16
2023-03-31T16:17:50.407Z,99166.53
2023-03-31T16:20:31.621Z,99172.97
2023-03-31T16:22:59.537Z,99163.59
2023-03-31T16:25:29.168Z,99163.09
2023-03-31T16:28:00.036Z,99168.19
2023-03-31T16:30:41.186Z,99176.09
2023-03-31T16:33:09.173Z,99173.19
2023-03-31T16:35:38.362Z,99169.06
2023-03-31T16:38:06.771Z,99175.81
2023-03-31T16:40:41.479Z,99177.13
2023-03-31T16:43:14.839Z,99177.00
2023-03-31T16:45:44.864Z,99180.59
2023-03-31T16:48:16.160Z,99172.03
2023-03-31T16:50:45.409Z,99171.38
2023-03-31T16:53:13.914Z,99178.13
2023-03-31T16:55:40.884Z,99184.22
2023-03-31T16:58:07.656Z,99175.31
2023-03-31T17:00:36.188Z,99177.28
2023-03-31T17:03:06.663Z,99180.59
2023-03-31T17:05:38.757Z,99178.78
2023-03-31T17:08:05.349Z,99189.03
2023-03-31T17:10:31.878Z,99179.59
2023-03-31T17:12:58.279Z,99180.25
2023-03-31T17:15:24.803Z,99180.78
2023-03-31T17:17:51.429Z,99187.34
2023-03-31T17:20:18.280Z,99184.41
2023-03-31T17:22:45.000Z,99182.88
2023-03-31T17:25:11.649Z,99182.25
2023-03-31T17:27:38.693Z,99187.53
2023-03-31T17:30:06.819Z,99184.72
2023-03-31T17:32:33.299Z,99186.38
2023-03-31T17:34:59.746Z,99194.63
2023-03-31T17:37:27.142Z,99179.81
2023-03-31T17:39:53.550Z,99189.19
2023-03-31T17:42:20.244Z,99189.84
2023-03-31T17:44:49.926Z,99177.00
2023-03-31T17:47:16.534Z,99184.53
2023-03-31T17:49:42.985Z,99190.81
2023-03-31T17:52:09.544Z,99186.88
2023-03-31T17:54:36.244Z,99178.13
2023-03-31T17:57:03.417Z,99177.66
2023-03-31T17:59:30.011Z,99177.28
2023-03-31T18:01:56.537Z,99187.34
2023-03-31T18:04:24.132Z,99186.38
2023-03-31T18:06:50.581Z,99185.88
2023-03-31T18:09:17.858Z,99191.16
2023-03-31T18:11:44.287Z,99189.81
2023-03-31T18:14:10.681Z,99191.97
2023-03-31T18:16:37.232Z,99185.41
2023-03-31T18:19:03.717Z,99185.69
2023-03-31T18:21:30.521Z,99189.34
2023-03-31T18:23:56.926Z,99184.72
2023-03-31T18:26:25.160Z,99184.06
2023-03-31T18:28:51.622Z,99184.41
2023-03-31T18:31:18.591Z,99183.38
2023-03-31T18:33:45.045Z,99178.44
2023-03-31T18:36:17.936Z,99188.53
2023-03-31T18:38:45.773Z,99185.38
2023-03-31T18:41:12.745Z,99189.66
2023-03-31T18:43:39.162Z,99188.84
2023-03-31T18:46:05.875Z,99190.81
2023-03-31T18:48:32.869Z,99204.16
2023-03-31T18:50:59.261Z,99196.91
2023-03-31T18:53:25.668Z,99198.41
2023-03-31T18:55:54.363Z,99206.31
2023-03-31T18:58:20.832Z,99193.47
2023-03-31T19:00:47.543Z,99206.47
2023-03-31T19:03:14.311Z,99210.28
2023-03-31T19:05:40.923Z,99205.13
2023-03-31T19:08:07.340Z,99207.63
2023-03-31T19:10:33.752Z,99206.00
2023-03-31T19:13:00.153Z,99212.56
2023-03-31T19:15:27.874Z,99210.75
2023-03-31T19:17:54.882Z,99203.66
2023-03-31T19:20:21.374Z,99214.56
2023-03-31T19:22:50.580Z,99218.81
2023-03-31T19:25:19.107Z,99217.50
2023-03-31T19:27:46.159Z,99216.34
2023-03-31T19:30:22.607Z,99219.97
2023-03-31T19:32:50.023Z,99216.69
2023-03-31T19:35:18.165Z,99211.41
2023-03-31T19:37:45.538Z,99212.06
2023-03-31T19:40:12.402Z,99210.59
2023-03-31T19:42:39.041Z,99205.81
2023-03-31T19:45:06.163Z,99203.50
2023-03-31T19:47:32.575Z,99206.31
2023-03-31T19:49:59.012Z,99212.22
2023-03-31T19:52:25.435Z,99203.00
2023-03-31T19:54:51.827Z,99201.72
2023-03-31T19:57:18.301Z,99201.34
2023-03-31T19:59:44.752Z,99207.31
2023-03-31T20:02:14.198Z,99203.34
2023-03-31T20:04:41.619Z,99213.72
2023-03-31T20:07:08.518Z,99208.09
2023-03-31T20:09:34.974Z,99214.34
2023-03-31T20:12:01.445Z,99215.69
2023-03-31T20:14:29.239Z,99217.34
2023-03-31T20:16:56.044Z,99214.19
2023-03-31T20:19:23.294Z,99212.06
2023-03-31T20:21:56.096Z,99213.22
2023-03-31T20:24:23.350Z,99215.53
2023-03-31T20:26:50.329Z,99216.03
2023-03-31T20:29:16.959Z,99216.84
2023-03-31T20:31:43.526Z,99219.66
2023-03-31T20:34:15.275Z,99217.16
2023-03-31T20:36:43.832Z,99215.38
2023-03-31T20:39:12.822Z,99217.16
2023-03-31T20:41:39.661Z,99213.38
2023-03-31T20:44:12.035Z,99213.69
2023-03-31T20:46:41.669Z,99212.88
2023-03-31T20:49:08.104Z,99218.66
2023-03-31T20:51:40.025Z,99217.81
2023-03-31T20:54:07.884Z,99212.56
2023-03-31T20:56:39.572Z,99212.38
2023-03-31T20:59:08.652Z,99211.41
2023-03-31T21:01:35.969Z,99215.66
2023-03-31T21:04:04.956Z,99208.28
2023-03-31T21:06:37.610Z,99211.91
2023-03-31T21:09:04.338Z,99215.03
2023-03-31T21:11:31.019Z,99220.47
2023-03-31T21:13:57.437Z,99221.78
2023-03-31T21:16:23.946Z,99221.94
2023-03-31T21:18:55.043Z,99223.88
2023-03-31T21:21:24.278Z,99227.66
2023-03-31T21:23:51.503Z,99223.06
2023-03-31T21:26:18.210Z,99225.19
2023-03-31T21:28:44.984Z,99222.91
2023-03-31T21:31:14.430Z,99225.84
2023-03-31T21:33:43.095Z,99221.59
2023-03-31T21:36:12.638Z,99227.50
2023-03-31T21:38:39.393Z,99233.13
2023-03-31T21:41:18.375Z,99235.25
2023-03-31T21:43:45.224Z,99231.78
2023-03-31T21:46:28.785Z,99235.75
2023-03-31T21:48:57.286Z,99235.41
2023-03-31T21:51:24.955Z,99236.88
2023-03-31T21:53:55.829Z,99238.03
2023-03-31T21:56:28.138Z,99232.09
2023-03-31T21:58:54.920Z,99238.03
2023-03-31T22:01:22.457Z,99233.91
2023-03-31T22:03:50.281Z,99237.53
2023-03-31T22:06:16.757Z,99230.28
2023-03-31T22:08:43.785Z,99239.97
2023-03-31T22:11:11.371Z,99237.03
2023-03-31T22:13:38.574Z,99233.72
2023-03-31T22:16:13.263Z,99240.66
2023-03-31T22:18:39.701Z,99234.38
2023-03-31T22:21:23.785Z,99238.34
2023-03-31T22:23:55.454Z,99244.09
2023-03-31T22:26:22.626Z,99239.16
2023-03-31T22:28:49.946Z,99248.38
2023-03-31T22:31:16.452Z,99246.06
2023-03-31T22:33:43.020Z,99251.69
2023-03-31T22:36:09.745Z,99246.03
2023-03-31T22:38:36.240Z,99251.66
2023-03-31T22:41:02.821Z,99250.34
2023-03-31T22:43:29.290Z,99242.97
2023-03-31T22:45:55.689Z,99247.53
2023-03-31T22:48:22.700Z,99253.28
2023-03-31T22:50:49.152Z,99246.56
2023-03-31T22:53:16.731Z,99249.16
2023-03-31T22:55:53.857Z,99250.84
2023-03-31T22:58:21.496Z,99252.16
2023-03-31T23:00:55.668Z,99259.00
2023-03-31T23:03:22.131Z,99256.59
2023-03-31T23:05:48.522Z,99257.88
2023-03-31T23:08:14.927Z,99253.91
2023-03-31T23:10:41.320Z,99260.81
2023-03-31T23:13:07.727Z,99261.91
2023-03-31T23:15:37.140Z,99260.28
2023-03-31T23:18:03.671Z,99258.13
2023-03-31T23:20:30.320Z,99266.38
2023-03-31T23:22:56.775Z,99260.16
2023-03-31T23:25:23.190Z,99256.69
2023-03-31T23:27:49.591Z,99254.28
2023-03-31T23:30:16.548Z,99265.75
2023-03-31T23:32:42.952Z,99257.00
2023-03-31T23:35:11.114Z,99260.59
2023-03-31T23:37:37.551Z,99260.13
2023-03-31T23:40:04.686Z,99264.03
2023-03-31T23:42:31.290Z,99252.72
2023-03-31T23:44:57.718Z,99256.13
2023-03-31T23:47:24.655Z,99252.81
2023-03-31T23:49:51.132Z,99259.88
2023-03-31T23:52:17.879Z,99253.63
2023-03-31T23:54:44.272Z,99255.31
2023-03-31T23:57:11.042Z,99250.84
2023-03-31T23:59:37.562Z,99256.94
